Terminal Aerodrome Forecast
Issued by NWS

Home | Current Version | Previous Version | Text Only | Print | Product List | Glossary On
Versions: 1 2 3 4 5 6 7 8 9 10 11 12 13 14 15 16 17 18 19 20 21 22 23 24 25 26 27
000
FTUS41 KOKX 300248 AAA
TAFHPN
TAF AMD
KHPN 300248Z 3003/3024 12005KT P6SM SCT008 OVC012
     FM300800 13002KT 2SM -DZ BR OVC004
     FM301300 13004KT 3SM BR BKN008 OVC012
     FM301500 13006KT P6SM SCT008 OVC015
     FM301800 14007KT P6SM BKN020
      AMD NOT SKED=

USA.gov is the U.S. government's official web portal to all federal, state and local government web resources and services.